Time;durP1;ratioP1;P1;durP2;ratioP2;P2;SDS_P1;SDS_P2;PMS_P1;PMS_P2;Temp;Humidity;BMP_temperature;BMP_pressure;BME280_temperature;BME280_humidity;BME280_pressure;Samples;Min_cycle;Max_cycle;Signal;HPM_P1;HPM_P2
2022/09/29 00:00:48;;;;;;;8.77;6.72;;;7.00;99.90;;;;;;5023201;28;20402;-70
2022/09/29 00:03:14;;;;;;;11.90;7.25;;;7.00;99.90;;;;;;5024478;28;20120;-70
2022/09/29 00:05:46;;;;;;;9.10;6.60;;;7.00;99.90;;;;;;5022484;28;20125;-71
2022/09/29 00:08:12;;;;;;;10.57;8.23;;;6.90;99.90;;;;;;5022450;28;20096;-71
2022/09/29 00:10:41;;;;;;;9.07;7.47;;;6.90;99.90;;;;;;5024223;28;20115;-71
2022/09/29 00:13:07;;;;;;;7.10;6.38;;;6.90;99.90;;;;;;5022965;28;20043;-71
2022/09/29 00:15:33;;;;;;;9.32;8.15;;;6.90;99.90;;;;;;5023703;28;20042;-71
2022/09/29 00:17:59;;;;;;;9.30;7.05;;;6.90;99.90;;;;;;5023943;28;20033;-71
2022/09/29 00:20:25;;;;;;;8.82;7.25;;;6.80;99.90;;;;;;5025788;28;20057;-71
2022/09/29 00:22:50;;;;;;;8.10;6.70;;;6.90;99.90;;;;;;5008393;28;20033;-71
2022/09/29 00:25:17;;;;;;;8.23;7.15;;;6.80;99.90;;;;;;5007844;28;20041;-71
2022/09/29 00:27:44;;;;;;;8.85;7.38;;;6.80;99.90;;;;;;5023441;28;20137;-71
2022/09/29 00:30:10;;;;;;;7.45;6.65;;;6.80;99.90;;;;;;5007554;28;20107;-70
2022/09/29 00:32:36;;;;;;;9.13;6.72;;;6.80;99.90;;;;;;4989882;28;20042;-70
2022/09/29 00:35:02;;;;;;;10.10;6.72;;;6.80;99.90;;;;;;5022099;28;20488;-70
2022/09/29 00:37:30;;;;;;;9.65;7.40;;;6.70;99.90;;;;;;5018530;28;20037;-71
2022/09/29 00:39:56;;;;;;;10.95;6.97;;;6.70;99.90;;;;;;5023547;28;20046;-71
2022/09/29 00:42:22;;;;;;;9.32;7.60;;;6.60;99.90;;;;;;4986401;28;20054;-70
2022/09/29 00:45:05;;;;;;;10.98;7.53;;;6.60;99.90;;;;;;4987269;28;20052;-70
2022/09/29 00:47:35;;;;;;;9.95;7.30;;;6.60;99.90;;;;;;5003877;28;20045;-71
2022/09/29 00:50:08;;;;;;;9.25;7.30;;;6.60;99.90;;;;;;5001853;28;20135;-71
2022/09/29 00:52:39;;;;;;;9.20;7.70;;;6.60;99.90;;;;;;5019235;28;20113;-72
2022/09/29 00:55:16;;;;;;;12.07;8.02;;;6.60;99.90;;;;;;5002518;28;20045;-71
2022/09/29 00:58:02;;;;;;;12.35;8.80;;;6.60;99.90;;;;;;5020921;28;20095;-71
2022/09/29 01:00:28;;;;;;;10.65;8.93;;;6.60;99.90;;;;;;5023389;28;20535;-71
2022/09/29 01:03:03;;;;;;;13.63;9.38;;;6.60;99.90;;;;;;4993192;28;20038;-70
2022/09/29 01:05:36;;;;;;;12.05;9.43;;;6.60;99.90;;;;;;5008526;28;20065;-71
2022/09/29 01:08:28;;;;;;;11.82;9.00;;;6.60;99.90;;;;;;4991603;28;20046;-71
2022/09/29 01:10:56;;;;;;;14.57;9.35;;;7.10;99.90;;;;;;5005104;28;20906;-71
2022/09/29 01:13:22;;;;;;;11.48;9.35;;;6.60;99.90;;;;;;4990965;28;20454;-71
2022/09/29 01:15:48;;;;;;;11.95;9.95;;;6.60;99.90;;;;;;5022675;28;20038;-70
2022/09/29 01:18:17;;;;;;;15.88;10.90;;;6.60;99.90;;;;;;4958621;28;20092;-71
2022/09/29 01:20:58;;;;;;;13.10;10.32;;;6.60;99.90;;;;;;5023045;28;20038;-70
2022/09/29 01:23:57;;;;;;;12.18;9.82;;;6.60;99.90;;;;;;5009237;28;20084;-71
2022/09/29 01:26:53;;;;;;;12.38;9.60;;;6.60;99.90;;;;;;5007217;28;20141;-71
2022/09/29 01:29:28;;;;;;;11.63;8.52;;;6.60;99.90;;;;;;4988465;28;20045;-71
2022/09/29 01:32:01;;;;;;;7.32;6.03;;;6.60;99.90;;;;;;5007847;28;20137;-71
2022/09/29 01:34:55;;;;;;;6.65;5.25;;;6.50;99.90;;;;;;5007712;28;20057;-71
2022/09/29 01:37:44;;;;;;;13.15;6.55;;;6.30;99.90;;;;;;5005980;28;20550;-71
2022/09/29 01:40:19;;;;;;;10.13;8.30;;;6.20;99.90;;;;;;5007646;28;20457;-71
2022/09/29 01:43:00;;;;;;;12.20;9.45;;;6.20;99.90;;;;;;5022627;28;20442;-71
2022/09/29 01:45:38;;;;;;;12.60;9.30;;;6.10;99.90;;;;;;4991595;28;20034;-70
2022/09/29 01:48:12;;;;;;;17.05;12.52;;;6.10;99.90;;;;;;4977874;28;20096;-70
2022/09/29 01:50:49;;;;;;;17.40;11.18;;;6.10;99.90;;;;;;4972215;28;20050;-71
2022/09/29 01:53:20;;;;;;;12.55;10.40;;;6.20;99.90;;;;;;4990603;28;20092;-70
2022/09/29 01:55:51;;;;;;;15.25;11.60;;;6.20;99.90;;;;;;4991447;28;20384;-71
2022/09/29 01:58:26;;;;;;;15.30;12.05;;;6.20;99.90;;;;;;4990628;28;20053;-70
2022/09/29 02:00:57;;;;;;;17.05;12.57;;;6.20;99.90;;;;;;5004601;28;20565;-71
2022/09/29 02:03:39;;;;;;;16.80;12.90;;;6.20;99.90;;;;;;5007313;28;20045;-69
2022/09/29 02:06:14;;;;;;;16.77;12.30;;;6.20;99.90;;;;;;5006961;28;20121;-70
2022/09/29 02:08:50;;;;;;;16.48;13.18;;;6.20;99.90;;;;;;4988662;28;20050;-71
2022/09/29 02:11:17;;;;;;;13.95;11.10;;;6.20;99.90;;;;;;4974510;28;20046;-70
2022/09/29 02:13:46;;;;;;;10.32;5.78;;;6.20;99.90;;;;;;4975271;28;20469;-70
2022/09/29 02:16:15;;;;;;;6.85;4.47;;;6.80;99.90;;;;;;5006701;28;20116;-69
2022/09/29 02:19:06;;;;;;;6.93;4.95;;;5.90;99.90;;;;;;5007143;28;20042;-71
2022/09/29 02:21:33;;;;;;;6.88;5.55;;;5.60;99.90;;;;;;4987025;28;20439;-70
2022/09/29 02:23:58;;;;;;;7.60;5.30;;;5.50;99.90;;;;;;5007225;28;20443;-70
2022/09/29 02:26:32;;;;;;;8.25;6.78;;;5.40;99.90;;;;;;4990683;28;20125;-71
2022/09/29 02:29:00;;;;;;;11.32;9.38;;;5.40;99.90;;;;;;4987599;28;20521;-70
2022/09/29 02:31:26;;;;;;;9.85;7.97;;;5.40;99.90;;;;;;5005996;28;20117;-70
2022/09/29 02:33:52;;;;;;;11.45;8.70;;;5.50;99.90;;;;;;4972283;28;20550;-71
2022/09/29 02:36:46;;;;;;;12.63;10.13;;;5.40;99.90;;;;;;4959465;28;20034;-71
2022/09/29 02:39:30;;;;;;;14.98;10.55;;;5.50;99.90;;;;;;4991559;28;20491;-71
2022/09/29 02:42:06;;;;;;;13.70;11.10;;;5.50;99.90;;;;;;5015952;28;20053;-71
2022/09/29 02:44:38;;;;;;;14.70;10.85;;;5.50;99.90;;;;;;5011014;28;20179;-70
2022/09/29 02:47:20;;;;;;;15.30;10.67;;;5.50;99.90;;;;;;5027308;28;20046;-71
2022/09/29 02:50:04;;;;;;;13.30;10.57;;;5.50;99.90;;;;;;5025395;28;20064;-70
2022/09/29 02:52:41;;;;;;;19.25;14.57;;;5.60;99.90;;;;;;5008990;28;20048;-71
2022/09/29 02:55:34;;;;;;;17.38;13.55;;;5.50;99.90;;;;;;5026884;28;20446;-72
2022/09/29 02:58:13;;;;;;;18.67;13.57;;;5.60;99.90;;;;;;4980520;28;20050;-71
2022/09/29 03:00:40;;;;;;;14.32;12.00;;;5.60;99.90;;;;;;5009363;28;20052;-70
2022/09/29 03:03:05;;;;;;;18.60;13.73;;;5.60;99.90;;;;;;5007932;28;20033;-71
2022/09/29 03:05:32;;;;;;;16.70;11.65;;;5.60;99.90;;;;;;5026150;28;20048;-72
2022/09/29 03:07:57;;;;;;;13.52;8.00;;;5.60;99.90;;;;;;5024638;28;20394;-71
2022/09/29 03:10:23;;;;;;;7.97;6.15;;;5.60;99.90;;;;;;5006632;28;20041;-72
2022/09/29 03:12:49;;;;;;;7.22;5.18;;;5.50;99.90;;;;;;5022669;28;20060;-71
2022/09/29 03:15:15;;;;;;;6.10;5.47;;;5.30;99.90;;;;;;4994769;28;20075;-72
2022/09/29 03:17:41;;;;;;;9.38;6.85;;;5.20;99.90;;;;;;5007894;28;20049;-72
2022/09/29 03:20:07;;;;;;;9.15;7.93;;;5.10;99.90;;;;;;5009290;28;20033;-71
2022/09/29 03:22:34;;;;;;;16.25;9.88;;;5.10;99.90;;;;;;4993287;28;20048;-72
2022/09/29 03:25:00;;;;;;;18.70;12.73;;;5.00;99.90;;;;;;5026578;28;20052;-72
2022/09/29 03:27:25;;;;;;;34.80;14.48;;;5.10;99.90;;;;;;5009949;28;20037;-72
2022/09/29 03:29:51;;;;;;;21.15;14.57;;;5.10;99.90;;;;;;5027318;28;20045;-71
2022/09/29 03:32:17;;;;;;;20.75;15.27;;;5.10;99.90;;;;;;5024429;28;20518;-71
2022/09/29 03:34:43;;;;;;;24.05;16.67;;;5.20;99.90;;;;;;5010990;28;20180;-72
2022/09/29 03:37:09;;;;;;;25.83;19.33;;;5.20;99.90;;;;;;5012557;28;20052;-71
2022/09/29 03:39:35;;;;;;;28.08;16.88;;;5.20;99.90;;;;;;5011426;28;20033;-71
2022/09/29 03:42:01;;;;;;;35.42;18.25;;;5.30;99.90;;;;;;5025827;28;20312;-71
2022/09/29 03:44:27;;;;;;;26.92;19.20;;;5.30;99.90;;;;;;5008749;28;20443;-71
2022/09/29 03:46:52;;;;;;;32.28;21.15;;;5.30;99.90;;;;;;5024585;28;20037;-71
2022/09/29 03:49:18;;;;;;;32.90;20.17;;;5.40;99.90;;;;;;4993634;28;20604;-70
2022/09/29 03:51:44;;;;;;;27.90;19.30;;;5.40;99.90;;;;;;4991202;28;20030;-71
2022/09/29 03:54:10;;;;;;;29.50;19.90;;;5.40;99.90;;;;;;5022842;28;20037;-70
2022/09/29 03:56:37;;;;;;;33.17;21.08;;;5.50;99.90;;;;;;5026995;28;20038;-71
2022/09/29 03:59:04;;;;;;;32.67;22.08;;;5.50;99.90;;;;;;4996264;28;20469;-71
2022/09/29 04:01:31;;;;;;;32.92;21.23;;;5.50;99.90;;;;;;5007499;28;20792;-71
2022/09/29 04:03:57;;;;;;;29.30;20.27;;;5.60;99.90;;;;;;5004050;28;20383;-71
2022/09/29 04:06:23;;;;;;;35.05;22.55;;;5.60;99.90;;;;;;5024411;28;20418;-72
2022/09/29 04:08:49;;;;;;;29.63;19.90;;;5.60;99.90;;;;;;5006755;28;20045;-72
2022/09/29 04:11:17;;;;;;;27.52;18.20;;;5.60;99.90;;;;;;5024815;28;20041;-71
2022/09/29 04:13:43;;;;;;;28.80;19.25;;;5.60;99.90;;;;;;5006612;28;20041;-72
2022/09/29 04:16:09;;;;;;;29.10;19.67;;;5.50;99.90;;;;;;5007415;28;20080;-71
2022/09/29 04:18:36;;;;;;;26.88;19.33;;;5.50;99.90;;;;;;4978070;28;20046;-71
2022/09/29 04:21:06;;;;;;;32.50;20.48;;;5.50;99.90;;;;;;5008195;28;20530;-71
2022/09/29 04:23:32;;;;;;;27.17;19.55;;;5.50;99.90;;;;;;5008736;28;20038;-71
2022/09/29 04:25:59;;;;;;;27.55;18.75;;;5.50;99.90;;;;;;4992481;28;20051;-71
2022/09/29 04:28:25;;;;;;;31.10;19.75;;;5.50;99.90;;;;;;5024633;28;20064;-71
2022/09/29 04:30:51;;;;;;;24.15;18.10;;;5.50;99.90;;;;;;5007301;28;20048;-71
2022/09/29 04:33:17;;;;;;;26.30;18.05;;;5.50;99.90;;;;;;5023968;28;20037;-71
2022/09/29 04:35:42;;;;;;;25.38;18.23;;;5.50;99.90;;;;;;5017293;28;20041;-71
2022/09/29 04:38:11;;;;;;;26.20;18.80;;;5.50;99.90;;;;;;5014754;28;20037;-72
2022/09/29 04:40:37;;;;;;;24.27;17.63;;;5.50;99.90;;;;;;5015138;28;20485;-72
2022/09/29 04:43:04;;;;;;;24.08;18.02;;;5.50;99.90;;;;;;5015210;28;20128;-72
2022/09/29 04:45:31;;;;;;;25.10;18.25;;;5.50;99.90;;;;;;5015275;28;20406;-72
2022/09/29 04:48:00;;;;;;;28.70;18.48;;;5.50;99.90;;;;;;5029338;28;20052;-72
2022/09/29 04:50:26;;;;;;;24.63;17.77;;;5.50;99.90;;;;;;5015573;28;20041;-72
2022/09/29 04:52:52;;;;;;;25.23;17.45;;;5.40;99.90;;;;;;5029264;28;20051;-72
2022/09/29 04:55:17;;;;;;;23.25;17.23;;;5.40;99.90;;;;;;5011336;28;20052;-72
2022/09/29 04:57:44;;;;;;;24.48;17.02;;;5.40;99.90;;;;;;5010446;28;20049;-72
2022/09/29 05:00:11;;;;;;;20.20;15.30;;;5.40;99.90;;;;;;5010410;28;20052;-72
2022/09/29 05:02:37;;;;;;;11.55;9.05;;;5.30;99.90;;;;;;4996489;28;20104;-71
2022/09/29 05:05:05;;;;;;;10.32;7.90;;;5.20;99.90;;;;;;5011612;28;20099;-72
2022/09/29 05:07:33;;;;;;;14.40;7.75;;;5.10;99.90;;;;;;5011891;28;20387;-71
2022/09/29 05:09:59;;;;;;;25.25;9.30;;;4.90;99.90;;;;;;5009864;28;20565;-72
2022/09/29 05:12:25;;;;;;;8.70;7.70;;;4.70;99.90;;;;;;5010046;28;20045;-72
2022/09/29 05:14:51;;;;;;;9.77;8.75;;;4.60;99.90;;;;;;5010454;28;20042;-72
2022/09/29 05:17:16;;;;;;;9.95;8.95;;;4.60;99.90;;;;;;5011713;28;20038;-72
2022/09/29 05:19:42;;;;;;;12.43;9.57;;;4.50;99.90;;;;;;5026573;28;20052;-72
2022/09/29 05:22:08;;;;;;;9.88;8.57;;;4.50;99.90;;;;;;5027646;28;20442;-72
2022/09/29 05:24:34;;;;;;;19.00;8.32;;;4.40;99.90;;;;;;5008742;28;20046;-71
2022/09/29 05:26:59;;;;;;;17.75;8.27;;;4.40;99.90;;;;;;5027865;28;20415;-72
2022/09/29 05:29:26;;;;;;;34.35;8.05;;;4.30;99.90;;;;;;5022578;28;20037;-72
2022/09/29 05:31:54;;;;;;;9.00;7.65;;;4.20;99.90;;;;;;5026235;28;20041;-72
2022/09/29 05:34:20;;;;;;;11.65;8.32;;;4.20;99.90;;;;;;5027169;28;20041;-71
2022/09/29 05:36:46;;;;;;;11.23;9.02;;;4.20;99.90;;;;;;5027289;28;20441;-72
2022/09/29 05:39:12;;;;;;;10.23;9.07;;;4.10;99.90;;;;;;4993310;28;20046;-72
2022/09/29 05:41:38;;;;;;;15.73;10.02;;;4.10;99.90;;;;;;5008107;28;20033;-72
2022/09/29 05:44:04;;;;;;;11.20;9.98;;;4.10;99.90;;;;;;4991821;28;20172;-71
2022/09/29 05:46:30;;;;;;;16.10;11.25;;;4.10;99.90;;;;;;5011822;28;20534;-72
2022/09/29 05:48:59;;;;;;;26.17;14.75;;;4.20;99.90;;;;;;5027989;28;20498;-71
2022/09/29 05:51:27;;;;;;;21.20;14.05;;;4.20;99.90;;;;;;5011669;28;20136;-72
2022/09/29 05:53:54;;;;;;;19.73;14.15;;;4.20;99.90;;;;;;4994890;28;20044;-71
2022/09/29 05:56:22;;;;;;;21.90;16.15;;;4.30;99.90;;;;;;5028865;28;20048;-72
2022/09/29 05:58:49;;;;;;;26.30;16.65;;;4.30;99.90;;;;;;5025750;28;20064;-71
2022/09/29 06:01:17;;;;;;;39.83;19.35;;;5.00;99.90;;;;;;5010229;28;20052;-72
2022/09/29 06:03:44;;;;;;;30.40;16.00;;;4.40;99.90;;;;;;5005282;28;20564;-72
2022/09/29 06:06:17;;;;;;;26.15;17.60;;;4.40;99.90;;;;;;5010862;28;20371;-71
2022/09/29 06:08:43;;;;;;;26.30;17.38;;;4.50;99.90;;;;;;4997858;28;20126;-71
2022/09/29 06:11:12;;;;;;;20.90;16.25;;;4.50;99.90;;;;;;4996852;28;20048;-72
2022/09/29 06:13:43;;;;;;;19.38;15.45;;;4.50;99.90;;;;;;5011279;28;20072;-72
2022/09/29 06:16:13;;;;;;;15.15;12.15;;;4.60;99.90;;;;;;4997818;28;20048;-71
2022/09/29 06:18:39;;;;;;;14.75;11.55;;;4.50;99.90;;;;;;5023777;28;20042;-71
2022/09/29 06:21:10;;;;;;;17.33;13.30;;;4.50;99.90;;;;;;5025864;28;20049;-72
2022/09/29 06:23:39;;;;;;;27.08;16.17;;;4.50;99.90;;;;;;5008682;28;20099;-71
2022/09/29 06:26:10;;;;;;;25.35;16.27;;;4.60;99.90;;;;;;5008575;28;20042;-71
2022/09/29 06:28:36;;;;;;;31.67;19.38;;;4.60;99.90;;;;;;5025743;28;20049;-71
2022/09/29 06:31:05;;;;;;;40.35;21.45;;;4.70;99.90;;;;;;5026408;28;20049;-72
2022/09/29 06:33:32;;;;;;;35.85;20.73;;;4.70;99.90;;;;;;5024018;28;20057;-72
2022/09/29 06:38:46;;;;;;;33.28;19.65;;;4.80;99.90;;;;;;5008145;28;20050;-71
2022/09/29 06:41:12;;;;;;;37.67;21.08;;;4.90;99.90;;;;;;5009336;28;20430;-71
2022/09/29 06:43:38;;;;;;;31.67;20.92;;;5.00;99.90;;;;;;5008792;28;20053;-72
2022/09/29 06:46:04;;;;;;;35.08;21.15;;;5.00;99.90;;;;;;5008699;28;20052;-71
2022/09/29 06:48:30;;;;;;;31.95;20.10;;;5.10;99.90;;;;;;5008502;28;20049;-72
2022/09/29 06:50:56;;;;;;;29.00;19.70;;;5.10;99.90;;;;;;5024667;28;20041;-70
2022/09/29 06:53:23;;;;;;;32.53;21.15;;;5.20;99.90;;;;;;5010581;28;20041;-71
2022/09/29 06:55:53;;;;;;;32.35;20.80;;;5.20;99.90;;;;;;5024973;28;20116;-71
2022/09/29 06:58:19;;;;;;;31.80;20.45;;;5.20;99.90;;;;;;5024767;28;20045;-72
2022/09/29 07:00:44;;;;;;;32.53;20.85;;;5.30;99.90;;;;;;5004278;28;20111;-71
2022/09/29 07:03:10;;;;;;;40.90;24.50;;;5.40;99.90;;;;;;5025339;28;20025;-72
2022/09/29 07:05:36;;;;;;;35.50;22.65;;;5.50;99.90;;;;;;5012260;28;20584;-71
2022/09/29 07:08:02;;;;;;;40.50;23.60;;;5.50;99.90;;;;;;5012970;28;20525;-72
2022/09/29 07:10:29;;;;;;;42.97;24.83;;;5.60;99.90;;;;;;4998191;28;20049;-72
2022/09/29 07:12:54;;;;;;;37.95;23.30;;;5.60;99.90;;;;;;5008201;28;20041;-72
2022/09/29 07:15:20;;;;;;;38.42;22.60;;;5.70;99.90;;;;;;5021809;28;20033;-71
2022/09/29 07:17:50;;;;;;;41.17;23.92;;;5.80;99.90;;;;;;4986802;28;20053;-72
2022/09/29 07:20:16;;;;;;;38.97;24.20;;;5.80;99.90;;;;;;5017219;28;20037;-71
2022/09/29 07:22:46;;;;;;;41.70;24.45;;;5.90;99.90;;;;;;4988442;28;20041;-71
2022/09/29 07:25:12;;;;;;;42.50;25.42;;;5.90;99.90;;;;;;5010162;28;20038;-72
2022/09/29 07:27:37;;;;;;;47.67;27.33;;;6.00;99.90;;;;;;4997706;28;20037;-71
2022/09/29 07:30:04;;;;;;;46.83;27.08;;;6.10;99.90;;;;;;4997655;28;20036;-72
2022/09/29 07:32:33;;;;;;;43.08;25.83;;;6.20;99.90;;;;;;5027174;28;20042;-72
2022/09/29 07:34:58;;;;;;;45.17;26.60;;;6.20;99.90;;;;;;4997055;28;20406;-72
2022/09/29 07:37:26;;;;;;;45.72;26.83;;;6.30;99.90;;;;;;5022446;28;20129;-72
2022/09/29 07:39:53;;;;;;;42.13;25.83;;;6.40;99.90;;;;;;4997311;28;20116;-72
2022/09/29 07:42:20;;;;;;;43.00;25.63;;;6.50;99.90;;;;;;5013079;28;20088;-72
2022/09/29 07:44:46;;;;;;;49.90;26.35;;;6.60;99.90;;;;;;5030543;28;20132;-72
2022/09/29 07:47:13;;;;;;;47.58;28.30;;;6.60;99.90;;;;;;5029430;28;20532;-71
2022/09/29 07:49:39;;;;;;;47.28;28.30;;;6.70;99.90;;;;;;5010372;28;20400;-72
2022/09/29 07:52:05;;;;;;;45.33;26.90;;;6.80;99.90;;;;;;5010753;28;20057;-72
2022/09/29 07:54:31;;;;;;;48.25;27.65;;;6.90;99.90;;;;;;5008316;28;20046;-71
2022/09/29 07:56:59;;;;;;;45.58;26.48;;;6.90;99.90;;;;;;5006796;28;20048;-70
2022/09/29 07:59:29;;;;;;;55.08;27.95;;;7.00;99.90;;;;;;5010426;28;20080;-70
2022/09/29 08:01:56;;;;;;;42.92;24.45;;;7.10;99.90;;;;;;5007835;28;20510;-72
2022/09/29 08:04:21;;;;;;;43.58;24.35;;;7.20;99.90;;;;;;5029486;28;20437;-72
2022/09/29 08:06:47;;;;;;;40.28;22.90;;;7.20;99.90;;;;;;5010934;28;20033;-72
2022/09/29 08:09:14;;;;;;;38.83;23.33;;;7.30;99.90;;;;;;4996569;28;20097;-72
2022/09/29 08:11:41;;;;;;;49.78;27.98;;;7.40;99.90;;;;;;5010436;28;20096;-72
2022/09/29 08:14:09;;;;;;;48.78;26.95;;;7.60;99.90;;;;;;4997852;28;20041;-72
2022/09/29 08:16:35;;;;;;;43.10;24.20;;;7.80;99.90;;;;;;5028788;28;20046;-72
2022/09/29 08:19:02;;;;;;;33.22;20.60;;;8.00;99.90;;;;;;4993744;28;20044;-71
2022/09/29 08:21:30;;;;;;;33.08;21.15;;;8.20;99.90;;;;;;4995128;28;20033;-71
2022/09/29 08:23:57;;;;;;;29.83;18.58;;;8.30;99.90;;;;;;5025050;28;20038;-72
2022/09/29 08:26:23;;;;;;;28.17;17.55;;;8.40;99.90;;;;;;5027971;28;20482;-71
2022/09/29 08:28:49;;;;;;;23.00;16.13;;;8.40;99.90;;;;;;5013477;28;20120;-71
2022/09/29 08:31:19;;;;;;;24.40;17.30;;;8.50;99.90;;;;;;5027882;28;20048;-71
2022/09/29 08:33:46;;;;;;;24.42;17.25;;;8.60;99.90;;;;;;5012433;28;20115;-71
2022/09/29 08:36:15;;;;;;;26.23;15.25;;;8.70;99.90;;;;;;5004729;28;20122;-71
2022/09/29 08:38:48;;;;;;;21.48;15.57;;;8.70;99.90;;;;;;4996232;28;20045;-70
2022/09/29 08:41:38;;;;;;;19.17;14.25;;;8.80;99.90;;;;;;5028266;28;20033;-71
2022/09/29 08:44:13;;;;;;;21.17;15.02;;;9.00;99.90;;;;;;5025849;28;20113;-71
2022/09/29 08:46:44;;;;;;;21.75;16.00;;;9.20;99.90;;;;;;5010955;28;20050;-71
2022/09/29 08:49:27;;;;;;;21.85;15.00;;;9.30;99.90;;;;;;5008297;28;20045;-72
2022/09/29 08:51:59;;;;;;;19.45;13.65;;;9.50;99.90;;;;;;5026656;28;20439;-71
2022/09/29 08:54:33;;;;;;;18.00;13.27;;;9.70;99.90;;;;;;5029005;28;20045;-71
2022/09/29 08:57:00;;;;;;;19.27;12.70;;;10.00;99.90;;;;;;5027167;28;20038;-70
2022/09/29 08:59:28;;;;;;;16.85;12.23;;;10.20;99.90;;;;;;4995976;28;20063;-71
2022/09/29 09:02:25;;;;;;;16.40;12.48;;;10.30;99.90;;;;;;5009835;28;20045;-71
2022/09/29 09:04:56;;;;;;;14.85;11.95;;;10.50;99.90;;;;;;5025925;28;20562;-71
2022/09/29 09:07:22;;;;;;;15.75;10.93;;;10.70;99.90;;;;;;5019057;28;20394;-71
2022/09/29 09:09:58;;;;;;;13.95;10.57;;;10.80;99.90;;;;;;4993761;28;20086;-71
2022/09/29 09:12:36;;;;;;;14.55;10.35;;;10.90;99.90;;;;;;5024228;28;20038;-71
2022/09/29 09:15:32;;;;;;;13.27;10.25;;;10.90;99.90;;;;;;4994040;28;20184;-71
2022/09/29 09:18:21;;;;;;;12.63;10.05;;;11.10;99.90;;;;;;5028776;28;20052;-71
2022/09/29 09:21:04;;;;;;;11.82;8.88;;;11.10;99.90;;;;;;5032199;28;20494;-71
2022/09/29 09:23:54;;;;;;;11.25;8.65;;;11.20;99.90;;;;;;5028728;28;20066;-71
2022/09/29 09:26:37;;;;;;;13.50;9.18;;;11.20;99.90;;;;;;5017856;28;20049;-70
2022/09/29 09:29:17;;;;;;;11.80;8.70;;;11.30;99.90;;;;;;5000034;28;20495;-71
2022/09/29 09:31:50;;;;;;;11.80;8.88;;;11.30;99.90;;;;;;5030853;28;20571;-71
2022/09/29 09:34:26;;;;;;;17.58;10.32;;;11.40;99.90;;;;;;5019441;28;20060;-71
2022/09/29 09:37:04;;;;;;;13.05;9.60;;;11.50;99.90;;;;;;5035127;28;20112;-70
2022/09/29 09:39:43;;;;;;;16.58;12.48;;;11.60;99.90;;;;;;5020127;28;20070;-71
2022/09/29 09:42:20;;;;;;;16.90;11.77;;;11.70;99.90;;;;;;5029222;28;20503;-70
2022/09/29 09:44:51;;;;;;;16.58;11.13;;;11.80;99.90;;;;;;5004515;28;20139;-70
2022/09/29 09:47:31;;;;;;;13.15;9.88;;;12.00;99.90;;;;;;5032971;28;20033;-71
2022/09/29 09:50:01;;;;;;;10.70;9.07;;;12.10;99.90;;;;;;5018185;28;20041;-70
2022/09/29 09:52:50;;;;;;;11.05;8.40;;;12.30;99.90;;;;;;5014423;28;20041;-69
2022/09/29 09:55:23;;;;;;;9.95;8.32;;;12.30;99.90;;;;;;5021069;28;20141;-70
2022/09/29 09:58:31;;;;;;;11.48;7.90;;;12.40;99.90;;;;;;5022233;28;20041;-70
2022/09/29 10:01:01;;;;;;;8.18;7.38;;;12.50;99.90;;;;;;5002388;28;20046;-70
2022/09/29 10:03:30;;;;;;;9.52;7.97;;;12.70;99.90;;;;;;5003412;28;20069;-70
2022/09/29 10:05:56;;;;;;;8.32;7.43;;;12.80;99.90;;;;;;5017805;28;20096;-69
2022/09/29 10:08:26;;;;;;;10.60;7.45;;;12.90;99.90;;;;;;5001972;28;20134;-69
2022/09/29 10:10:53;;;;;;;8.63;6.65;;;13.10;99.90;;;;;;5017193;28;20041;-70
2022/09/29 10:13:19;;;;;;;8.38;6.90;;;13.20;99.90;;;;;;5001158;28;20048;-71
2022/09/29 10:16:12;;;;;;;8.93;6.72;;;13.10;99.90;;;;;;4984074;28;20037;-69
2022/09/29 10:18:56;;;;;;;7.05;6.18;;;13.10;99.90;;;;;;5032832;28;20502;-70
2022/09/29 10:21:31;;;;;;;9.15;7.07;;;13.10;99.90;;;;;;5032767;28;20045;-70
2022/09/29 10:24:03;;;;;;;9.80;6.97;;;13.10;99.90;;;;;;5001014;28;20366;-70
2022/09/29 10:26:42;;;;;;;8.57;6.45;;;13.10;99.90;;;;;;5030620;28;20519;-70
2022/09/29 10:29:42;;;;;;;8.20;7.40;;;13.20;99.90;;;;;;5033966;28;20052;-71
2022/09/29 10:32:20;;;;;;;8.27;5.95;;;13.40;99.90;;;;;;5015723;28;20094;-70
2022/09/29 10:34:53;;;;;;;7.72;6.57;;;13.50;99.90;;;;;;5029245;28;20048;-69
2022/09/29 10:37:27;;;;;;;7.05;5.90;;;13.60;99.90;;;;;;5031797;28;20041;-70
2022/09/29 10:40:15;;;;;;;8.20;6.38;;;13.60;99.90;;;;;;5032552;28;20380;-69
2022/09/29 10:42:45;;;;;;;6.90;6.13;;;13.70;99.90;;;;;;5031649;28;20034;-71
2022/09/29 10:45:22;;;;;;;6.70;6.00;;;13.80;99.90;;;;;;5032456;28;20045;-70
2022/09/29 10:48:06;;;;;;;7.72;6.13;;;13.90;99.90;;;;;;5012980;28;20044;-70
2022/09/29 10:50:57;;;;;;;7.68;6.38;;;13.90;99.90;;;;;;5031443;28;20034;-68
2022/09/29 10:53:34;;;;;;;7.65;6.85;;;14.00;99.90;;;;;;5029476;28;20068;-70
2022/09/29 10:56:07;;;;;;;8.00;6.97;;;14.10;99.90;;;;;;5029254;28;20050;-70
2022/09/29 10:58:39;;;;;;;9.20;7.13;;;14.20;99.90;;;;;;4995377;28;20125;-70
2022/09/29 11:01:14;;;;;;;7.00;6.32;;;14.20;99.90;;;;;;5029896;28;20099;-70
2022/09/29 11:03:47;;;;;;;10.45;6.40;;;14.30;99.90;;;;;;5014416;28;20125;-68
2022/09/29 11:06:13;;;;;;;;;;;14.40;99.90;;;;;;5031036;28;20482;-70
2022/09/29 11:09:03;;;;;;;6.82;6.22;;;14.30;99.90;;;;;;5027192;28;19916;-70
2022/09/29 11:11:33;;;;;;;9.90;7.22;;;14.50;99.90;;;;;;5010046;28;20494;-69
2022/09/29 11:13:59;;;;;;;8.05;7.22;;;14.40;99.90;;;;;;5026704;28;20033;-70
2022/09/29 11:16:36;;;;;;;8.25;7.10;;;14.50;99.90;;;;;;5010013;28;20044;-69
2022/09/29 11:19:09;;;;;;;9.25;5.90;;;14.60;99.90;;;;;;5002182;28;20045;-70
2022/09/29 11:21:41;;;;;;;5.72;4.78;;;14.80;99.90;;;;;;5026251;28;20096;-69
2022/09/29 11:24:34;;;;;;;5.87;5.27;;;14.90;99.90;;;;;;5002723;28;20061;-70
2022/09/29 11:27:09;;;;;;;6.35;5.68;;;15.00;99.90;;;;;;5003208;28;20036;-71
2022/09/29 11:29:39;;;;;;;6.47;4.68;;;15.00;99.90;;;;;;5002662;28;20041;-70
2022/09/29 11:32:23;;;;;;;5.93;4.95;;;14.80;99.90;;;;;;5020277;28;20529;-71
2022/09/29 11:34:58;;;;;;;5.82;3.97;;;14.60;99.90;;;;;;5020350;28;20045;-71
2022/09/29 11:37:48;;;;;;;5.18;3.63;;;14.40;99.90;;;;;;5024914;28;20033;-71
2022/09/29 11:40:35;;;;;;;5.32;4.82;;;14.50;99.90;;;;;;5004019;28;20073;-71
2022/09/29 11:43:27;;;;;;;4.97;4.47;;;14.60;99.90;;;;;;5016576;28;20557;-70
2022/09/29 11:46:54;;;;;;;6.45;5.15;;;14.70;99.90;;;;;;5013465;28;20065;-69
2022/09/29 11:49:45;;;;;;;7.22;4.57;;;14.80;99.90;;;;;;4969497;28;20538;-71
2022/09/29 11:52:35;;;;;;;4.70;3.90;;;14.80;99.90;;;;;;4983547;28;20053;-70
2022/09/29 11:55:16;;;;;;;11.55;2.90;;;14.90;99.90;;;;;;4989982;28;20112;-71
2022/09/29 11:58:16;;;;;;;5.65;3.42;;;15.00;99.90;;;;;;5005376;28;20441;-71
2022/09/29 12:01:04;;;;;;;2.90;2.63;;;15.10;99.90;;;;;;5026394;28;20064;-71
2022/09/29 12:03:38;;;;;;;4.85;3.90;;;15.10;99.90;;;;;;5020093;28;20044;-71
2022/09/29 12:06:36;;;;;;;4.47;4.07;;;15.20;99.90;;;;;;5002464;28;20056;-70
2022/09/29 12:09:25;;;;;;;4.32;3.50;;;15.20;99.90;;;;;;5007860;28;20073;-70
2022/09/29 12:12:07;;;;;;;5.53;3.58;;;15.30;99.90;;;;;;4973130;28;20619;-71
2022/09/29 12:14:59;;;;;;;4.88;3.85;;;15.40;99.90;;;;;;4999412;28;20045;-70
2022/09/29 12:17:31;;;;;;;6.63;4.35;;;15.40;99.90;;;;;;5021933;28;20053;-69
2022/09/29 12:20:05;;;;;;;5.13;4.15;;;15.40;99.90;;;;;;5016601;28;20102;-70
2022/09/29 12:22:32;;;;;;;6.03;4.68;;;15.50;99.90;;;;;;5016910;28;20516;-70
2022/09/29 12:25:00;;;;;;;4.32;3.75;;;15.50;99.90;;;;;;5026772;28;20099;-70
2022/09/29 12:27:35;;;;;;;7.50;4.22;;;15.40;99.90;;;;;;5000483;28;20045;-70
2022/09/29 12:30:12;;;;;;;5.07;4.57;;;15.60;99.90;;;;;;5023436;28;20041;-72
2022/09/29 12:32:51;;;;;;;4.72;3.50;;;15.70;99.90;;;;;;5001708;28;21009;-69
2022/09/29 12:35:35;;;;;;;5.53;3.83;;;15.80;99.90;;;;;;5018301;28;20473;-70
2022/09/29 12:38:29;;;;;;;5.22;3.95;;;15.80;99.90;;;;;;5015554;28;20387;-70
2022/09/29 12:41:14;;;;;;;5.20;3.70;;;15.90;99.90;;;;;;5015003;28;20048;-70
2022/09/29 12:43:59;;;;;;;5.57;4.03;;;16.00;99.90;;;;;;5015074;28;20057;-71
2022/09/29 12:46:38;;;;;;;5.68;3.60;;;16.00;99.90;;;;;;4994993;28;20049;-71
2022/09/29 12:49:08;;;;;;;3.33;2.92;;;16.00;99.90;;;;;;5012715;28;20405;-72
2022/09/29 12:51:47;;;;;;;5.85;4.68;;;16.00;99.90;;;;;;5017530;28;20049;-72
2022/09/29 12:54:21;;;;;;;5.43;4.43;;;16.10;99.90;;;;;;5021566;28;20045;-71
2022/09/29 12:57:05;;;;;;;5.35;4.20;;;16.10;99.90;;;;;;5005942;28;20045;-72
2022/09/29 12:59:43;;;;;;;3.95;3.20;;;16.20;99.90;;;;;;5016002;28;20037;-72
2022/09/29 13:02:28;;;;;;;3.20;2.90;;;16.30;99.90;;;;;;5000257;28;20037;-72
2022/09/29 13:05:26;;;;;;;4.40;3.38;;;16.30;99.90;;;;;;5030835;28;20041;-72
2022/09/29 13:08:10;;;;;;;4.35;3.55;;;16.20;99.90;;;;;;5006149;28;21228;-71
2022/09/29 13:11:03;;;;;;;4.68;2.97;;;16.20;99.90;;;;;;5022452;28;20547;-73
2022/09/29 13:14:14;;;;;;;4.70;3.40;;;16.10;99.90;;;;;;4989428;28;20499;-72